createdAt,value
2023-05-12T00:03:52.517Z,99.99
2023-05-12T00:08:51.592Z,99.99
2023-05-12T00:13:52.768Z,99.99
2023-05-12T00:18:53.828Z,99.99
2023-05-12T00:23:54.827Z,99.99
2023-05-12T00:28:55.878Z,99.99
2023-05-12T00:33:56.936Z,99.99
2023-05-12T00:38:57.978Z,99.99
2023-05-12T00:43:59.021Z,99.99
2023-05-12T00:49:00.051Z,99.99
2023-05-12T00:54:01.140Z,99.99
2023-05-12T00:59:02.180Z,99.99
2023-05-12T01:04:04.220Z,99.99
2023-05-12T01:09:04.275Z,99.99
2023-05-12T01:14:03.306Z,99.99
2023-05-12T01:19:05.374Z,99.99
2023-05-12T01:24:04.560Z,99.99
2023-05-12T01:29:06.593Z,99.99
2023-05-12T01:34:05.656Z,99.99
2023-05-12T01:39:07.696Z,99.99
2023-05-12T01:44:06.737Z,99.99
2023-05-12T01:49:07.773Z,99.99
2023-05-12T01:54:08.902Z,99.99
2023-05-12T01:59:10.007Z,99.99
2023-05-12T02:04:11.033Z,99.99
2023-05-12T02:09:13.043Z,99.99
2023-05-12T02:14:12.142Z,99.99
2023-05-12T02:19:14.271Z,99.99
2023-05-12T02:24:14.994Z,99.99
2023-05-12T02:29:14.045Z,99.99
2023-05-12T02:34:15.079Z,99.99
2023-05-12T02:39:17.114Z,99.99
2023-05-12T02:44:16.151Z,99.99
2023-05-12T02:49:18.190Z,99.99
2023-05-12T02:54:17.227Z,99.99
2023-05-12T02:59:18.304Z,99.99
2023-05-12T03:04:19.355Z,99.99
2023-05-12T03:09:21.400Z,99.99
2023-05-12T03:14:20.450Z,99.99
2023-05-12T03:19:21.510Z,99.99
2023-05-12T03:24:23.555Z,99.99
2023-05-12T03:29:24.607Z,99.99
2023-05-12T03:34:23.633Z,99.99
2023-05-12T03:39:25.693Z,99.99
2023-05-12T03:44:24.730Z,99.99
2023-05-12T03:49:26.797Z,99.99
2023-05-12T03:54:26.824Z,99.99
2023-05-12T03:59:26.857Z,99.99
2023-05-12T04:04:26.902Z,99.99
2023-05-12T04:09:25.968Z,99.99
2023-05-12T04:14:39.162Z,99.99
2023-05-12T04:19:27.928Z,99.99
2023-05-12T04:24:29.991Z,99.99
2023-05-12T04:29:29.057Z,99.99
2023-05-12T04:34:31.120Z,99.99
2023-05-12T04:39:30.180Z,99.99
2023-05-12T04:44:31.269Z,99.99
2023-05-12T04:49:32.333Z,99.99
2023-05-12T04:54:33.374Z,99.99
2023-05-12T04:59:35.441Z,99.69
2023-05-12T05:04:34.498Z,99.79
2023-05-12T05:09:36.672Z,98.88
2023-05-12T05:14:36.776Z,97.40
2023-05-12T05:19:50.908Z,96.44
2023-05-12T05:24:36.751Z,96.09
2023-05-12T05:29:36.858Z,94.11
2023-05-12T05:34:37.010Z,92.94
2023-05-12T05:39:37.008Z,93.44
2023-05-12T05:44:36.075Z,94.26
2023-05-12T05:49:38.092Z,94.46
2023-05-12T05:54:38.124Z,94.21
2023-05-12T05:59:38.166Z,94.52
2023-05-12T06:04:38.213Z,93.25
2023-05-12T06:09:38.228Z,92.09
2023-05-12T06:14:37.265Z,90.01
2023-05-12T06:19:38.299Z,91.16
2023-05-12T06:24:39.340Z,91.16
2023-05-12T06:29:40.358Z,91.52
2023-05-12T06:34:42.413Z,89.48
2023-05-12T06:39:42.441Z,88.28
2023-05-12T06:44:42.527Z,87.16
2023-05-12T06:49:42.677Z,88.13
2023-05-12T06:54:42.700Z,86.63
2023-05-12T06:59:41.734Z,85.66
2023-05-12T07:04:42.770Z,84.23
2023-05-12T07:09:43.809Z,87.08
2023-05-12T07:14:45.825Z,85.31
2023-05-12T07:19:46.183Z,84.34
2023-05-12T07:24:45.500Z,83.32
2023-05-12T07:29:46.547Z,84.30
2023-05-12T07:34:48.582Z,82.29
2023-05-12T07:39:47.636Z,81.07
2023-05-12T07:44:48.665Z,83.26
2023-05-12T07:49:49.724Z,81.27
2023-05-12T07:54:51.107Z,80.60
2023-05-12T07:59:52.164Z,79.27
2023-05-12T08:04:55.197Z,80.22
2023-05-12T08:09:54.223Z,82.28
2023-05-12T08:14:55.280Z,77.44
2023-05-12T08:19:57.333Z,79.54
2023-05-12T08:24:56.424Z,79.47
2023-05-12T08:29:57.465Z,80.86
2023-05-12T08:35:00.544Z,80.73
2023-05-12T08:40:01.607Z,81.72
2023-05-12T08:45:01.633Z,82.80
2023-05-12T08:50:01.691Z,82.90
2023-05-12T08:55:01.044Z,82.73
2023-05-12T09:00:01.484Z,84.32
2023-05-12T09:05:02.573Z,83.71
2023-05-12T09:10:04.600Z,82.33
2023-05-12T09:15:03.646Z,83.63
2023-05-12T09:20:04.711Z,81.63
2023-05-12T09:25:05.798Z,81.52
2023-05-12T09:30:06.824Z,79.80
2023-05-12T09:35:08.844Z,83.09
2023-05-12T09:40:07.898Z,83.53
2023-05-12T09:45:09.988Z,80.87
2023-05-12T09:50:10.033Z,78.44
2023-05-12T09:55:10.836Z,81.63
2023-05-12T10:00:21.506Z,83.03
2023-05-12T10:05:09.906Z,83.51
2023-05-12T10:10:11.972Z,83.31
2023-05-12T10:15:13.044Z,81.18
2023-05-12T10:20:14.119Z,81.74
2023-05-12T10:25:14.490Z,80.96
2023-05-12T10:30:13.544Z,79.44
2023-05-12T10:35:14.578Z,79.57
2023-05-12T10:40:16.733Z,80.38
2023-05-12T10:45:15.749Z,77.10
2023-05-12T10:50:16.811Z,78.08
2023-05-12T10:55:17.953Z,77.57
2023-05-12T11:00:20.646Z,76.46
2023-05-12T11:05:20.776Z,76.76
2023-05-12T11:10:22.103Z,73.63
2023-05-12T11:15:21.495Z,73.75
2023-05-12T11:20:22.591Z,73.02
2023-05-12T11:25:23.927Z,73.63
2023-05-12T11:30:25.018Z,73.32
2023-05-12T11:35:27.101Z,74.71
2023-05-12T11:40:26.164Z,70.73
2023-05-12T11:45:27.231Z,73.99
2023-05-12T11:50:28.326Z,73.83
2023-05-12T11:55:29.386Z,72.61
2023-05-12T12:00:33.444Z,72.75
2023-05-12T12:05:30.478Z,73.69
2023-05-12T12:10:31.526Z,71.13
2023-05-12T12:15:33.578Z,73.28
2023-05-12T12:20:33.631Z,68.61
2023-05-12T12:25:32.661Z,71.57
2023-05-12T12:30:34.696Z,68.98
2023-05-12T12:35:34.733Z,68.51
2023-05-12T12:40:38.679Z,69.21
2023-05-12T12:45:33.725Z,69.55
2023-05-12T12:50:35.736Z,68.98
2023-05-12T12:55:34.790Z,67.13
2023-05-12T13:00:35.838Z,67.87
2023-05-12T13:05:37.828Z,70.49
2023-05-12T13:10:36.883Z,68.14
2023-05-12T13:15:37.913Z,71.17
2023-05-12T13:20:38.956Z,71.97
2023-05-12T13:25:39.980Z,69.15
2023-05-12T13:30:42.049Z,69.49
2023-05-12T13:35:41.067Z,69.18
2023-05-12T13:40:42.096Z,69.31
2023-05-12T13:45:43.185Z,71.73
2023-05-12T13:50:44.253Z,70.12
2023-05-12T13:55:45.294Z,69.99
2023-05-12T14:00:46.331Z,68.54
2023-05-12T14:05:48.412Z,70.73
2023-05-12T14:10:47.426Z,70.39
2023-05-12T14:15:49.958Z,67.84
2023-05-12T14:20:49.331Z,68.95
2023-05-12T14:25:51.362Z,69.21
2023-05-12T14:30:50.402Z,68.01
2023-05-12T14:36:03.265Z,67.16
2023-05-12T14:40:53.385Z,66.99
2023-05-12T14:45:54.696Z,65.78
2023-05-12T14:50:52.902Z,67.60
2023-05-12T14:55:51.942Z,65.89
2023-05-12T15:00:55.030Z,67.40
2023-05-12T15:06:05.509Z,65.69
2023-05-12T15:10:54.963Z,66.43
2023-05-12T15:15:56.759Z,64.39
2023-05-12T15:20:57.025Z,64.66
2023-05-12T15:25:56.083Z,66.36
2023-05-12T15:30:57.124Z,65.39
2023-05-12T15:35:58.131Z,66.09
2023-05-12T15:40:59.157Z,65.66
2023-05-12T15:46:00.259Z,68.04
2023-05-12T15:51:02.300Z,72.41
2023-05-12T15:56:02.351Z,75.00
2023-05-12T16:01:01.465Z,79.39
2023-05-12T16:06:03.534Z,81.18
2023-05-12T16:11:03.581Z,83.58
2023-05-12T16:16:03.645Z,81.92
2023-05-12T16:21:02.670Z,83.03
2023-05-12T16:26:03.718Z,76.66
2023-05-12T16:31:04.833Z,77.37
2023-05-12T16:36:05.832Z,75.24
2023-05-12T16:41:07.941Z,78.58
2023-05-12T16:46:06.237Z,84.31
2023-05-12T16:51:07.431Z,83.44
2023-05-12T16:56:08.819Z,83.07
2023-05-12T17:01:10.252Z,82.97
2023-05-12T17:06:22.041Z,82.67
2023-05-12T17:11:25.857Z,83.11
2023-05-12T17:16:14.421Z,82.20
2023-05-12T17:21:21.408Z,82.26
2023-05-12T17:26:12.800Z,82.60
2023-05-12T17:31:14.305Z,81.55
2023-05-12T17:36:13.768Z,82.70
2023-05-12T17:41:13.244Z,82.54
2023-05-12T17:46:22.425Z,83.15
2023-05-12T22:16:50.906Z,98.27
2023-05-12T22:21:52.932Z,98.68
2023-05-12T22:26:54.050Z,98.27
2023-05-12T22:31:53.195Z,98.36
2023-05-12T22:36:54.342Z,98.32
2023-05-12T22:41:55.378Z,97.81
2023-05-12T22:46:57.484Z,98.43
2023-05-12T22:51:57.539Z,97.91
2023-05-12T22:56:56.578Z,97.36
2023-05-12T23:01:57.648Z,96.95
2023-05-12T23:06:58.718Z,96.54
2023-05-12T23:12:00.821Z,96.44
2023-05-12T23:17:00.937Z,95.98
2023-05-12T23:22:02.053Z,96.80
2023-05-12T23:27:01.154Z,97.05
2023-05-12T23:32:02.395Z,96.64
2023-05-12T23:37:04.494Z,96.79
2023-05-12T23:42:03.541Z,97.00
2023-05-12T23:47:05.796Z,97.36
2023-05-12T23:52:04.892Z,97.09
2023-05-12T23:57:06.070Z,96.79
